Time;durP1;ratioP1;P1;durP2;ratioP2;P2;SDS_P1;SDS_P2;PMS_P1;PMS_P2;Temp;Humidity;BMP_temperature;BMP_pressure;BME280_temperature;BME280_humidity;BME280_pressure;Samples;Min_cycle;Max_cycle;Signal;HPM_P1;HPM_P2
2022/12/15 00:40:40;;;;;;;38.72;22.33;;;;;;;;;;4454680;32;20089;-73
2022/12/15 00:43:05;;;;;;;38.42;20.70;;;;;;;;;;4454835;32;20115;-71
2022/12/15 00:48:14;;;;;;;33.90;20.65;;;;;;;;;;4455337;32;20116;-73
2022/12/15 00:50:51;;;;;;;38.22;20.95;;;;;;;;;;4452849;32;20026;-73
2022/12/15 01:20:38;;;;;;;43.97;22.80;;;;;;;;;;4454542;32;20072;-73
2022/12/15 01:23:03;;;;;;;52.30;25.08;;;;;;;;;;4439400;32;20014;-73
2022/12/15 01:25:28;;;;;;;44.92;24.70;;;;;;;;;;4439465;32;20458;-73
2022/12/15 01:27:54;;;;;;;36.38;23.27;;;;;;;;;;4439253;32;20021;-73
2022/12/15 01:30:22;;;;;;;38.88;23.38;;;;;;;;;;4453199;32;20055;-73
2022/12/15 01:32:47;;;;;;;39.50;22.05;;;;;;;;;;4439344;32;20080;-73
2022/12/15 01:35:13;;;;;;;50.38;26.70;;;;;;;;;;4454303;32;20044;-73
2022/12/15 01:37:38;;;;;;;43.00;23.98;;;;;;;;;;4453100;32;20088;-73
2022/12/15 01:42:49;;;;;;;40.00;24.92;;;;;;;;;;4453896;32;20044;-73
2022/12/15 01:45:23;;;;;;;45.60;24.37;;;;;;;;;;4438932;32;20025;-73
2022/12/15 01:47:49;;;;;;;45.45;24.12;;;;;;;;;;4439159;32;20048;-73
2022/12/15 01:50:15;;;;;;;43.63;25.33;;;;;;;;;;4438834;32;20092;-76
2022/12/15 01:52:41;;;;;;;46.90;27.30;;;;;;;;;;4452953;32;20362;-74
2022/12/15 01:55:07;;;;;;;50.60;26.20;;;;;;;;;;4453273;32;20411;-74
2022/12/15 01:57:34;;;;;;;47.60;27.20;;;;;;;;;;4453640;32;20059;-74
2022/12/15 02:00:01;;;;;;;45.47;25.55;;;;;;;;;;4438812;32;20445;-74
2022/12/15 02:02:27;;;;;;;44.25;24.10;;;;;;;;;;4453181;32;20021;-73
2022/12/15 02:04:55;;;;;;;42.03;25.20;;;;;;;;;;4452836;32;20051;-73
2022/12/15 02:07:21;;;;;;;40.95;24.02;;;;;;;;;;4438487;32;20044;-74
2022/12/15 02:09:47;;;;;;;44.53;26.27;;;;;;;;;;4439072;32;20097;-73
2022/12/15 02:12:28;;;;;;;44.08;24.52;;;;;;;;;;4439751;32;20052;-74
2022/12/15 02:14:59;;;;;;;43.65;24.80;;;;;;;;;;4439547;32;20043;-73
2022/12/15 02:17:34;;;;;;;40.97;24.25;;;;;;;;;;4452281;32;20047;-73
2022/12/15 02:20:05;;;;;;;40.63;22.48;;;;;;;;;;4438648;32;20018;-73
2022/12/15 02:22:36;;;;;;;43.30;24.90;;;;;;;;;;4438242;32;20025;-73
2022/12/15 02:25:08;;;;;;;44.22;24.37;;;;;;;;;;4438159;32;20320;-73
2022/12/15 02:27:39;;;;;;;43.58;24.90;;;;;;;;;;4438434;32;20021;-73
2022/12/15 02:30:12;;;;;;;40.63;24.08;;;;;;;;;;4452882;32;20379;-73
2022/12/15 02:33:06;;;;;;;36.63;22.80;;;;;;;;;;4453069;32;20359;-74
2022/12/15 02:35:41;;;;;;;33.88;22.15;;;;;;;;;;4438564;32;20088;-73
2022/12/15 02:38:07;;;;;;;39.85;25.88;;;;;;;;;;4452883;32;20017;-73
2022/12/15 02:40:32;;;;;;;40.10;24.27;;;;;;;;;;4438164;32;20048;-73
2022/12/15 02:42:59;;;;;;;45.15;24.73;;;;;;;;;;4438504;32;20089;-74
2022/12/15 02:45:33;;;;;;;48.75;25.95;;;;;;;;;;4452643;32;20016;-73
2022/12/15 02:48:07;;;;;;;48.63;25.73;;;;;;;;;;4453154;32;20025;-73
2022/12/15 02:50:50;;;;;;;43.65;24.70;;;;;;;;;;4452883;32;20063;-73
2022/12/15 02:53:31;;;;;;;47.67;24.90;;;;;;;;;;4452687;32;20047;-73
2022/12/15 02:56:09;;;;;;;47.80;24.05;;;;;;;;;;4453005;32;20063;-73
2022/12/15 02:58:40;;;;;;;49.08;25.88;;;;;;;;;;4438082;32;20022;-73
2022/12/15 03:01:12;;;;;;;38.80;24.10;;;;;;;;;;4451933;32;20025;-73
2022/12/15 03:03:38;;;;;;;39.30;24.75;;;;;;;;;;4436903;32;20022;-74
2022/12/15 03:06:03;;;;;;;39.97;23.95;;;;;;;;;;4437581;32;20037;-72
2022/12/15 03:08:28;;;;;;;45.63;25.27;;;;;;;;;;4437541;32;20395;-73
2022/12/15 03:10:55;;;;;;;45.50;24.23;;;;;;;;;;4452487;32;20026;-73
2022/12/15 03:13:20;;;;;;;40.42;23.62;;;;;;;;;;4438595;32;20051;-72
2022/12/15 03:15:46;;;;;;;43.08;25.30;;;;;;;;;;4439005;32;20037;-72
2022/12/15 03:18:11;;;;;;;40.28;24.00;;;;;;;;;;4453249;32;20018;-73
2022/12/15 03:20:36;;;;;;;43.67;25.52;;;;;;;;;;4438469;32;20038;-72
2022/12/15 03:23:01;;;;;;;39.03;21.98;;;;;;;;;;4452941;32;20109;-73
2022/12/15 03:25:28;;;;;;;42.33;22.73;;;;;;;;;;4437949;32;20384;-73
2022/12/15 03:27:53;;;;;;;40.67;22.77;;;;;;;;;;4451771;32;20022;-73
2022/12/15 03:30:18;;;;;;;36.38;20.98;;;;;;;;;;4451992;32;20017;-73
2022/12/15 03:32:43;;;;;;;45.58;24.48;;;;;;;;;;4452204;32;20025;-75
2022/12/15 03:35:09;;;;;;;35.88;21.45;;;;;;;;;;4451843;32;20033;-73
2022/12/15 03:37:34;;;;;;;;;;;;;;;;;;4437460;32;20080;-73
2022/12/15 03:39:59;;;;;;;39.28;20.18;;;;;;;;;;4451571;32;20231;-72
2022/12/15 03:45:09;;;;;;;37.42;21.17;;;;;;;;;;4453327;32;20048;-74
2022/12/15 03:47:34;;;;;;;37.50;20.90;;;;;;;;;;4451767;32;20103;-73
2022/12/15 03:49:59;;;;;;;;;;;;;;;;;;4437695;32;20021;-73
2022/12/15 03:52:25;;;;;;;38.08;20.60;;;;;;;;;;4437031;32;20314;-73
2022/12/15 03:54:50;;;;;;;38.13;19.55;;;;;;;;;;4437412;32;20026;-73
2022/12/15 03:57:15;;;;;;;37.15;20.40;;;;;;;;;;4437228;32;20044;-74
2022/12/15 03:59:40;;;;;;;35.17;19.67;;;;;;;;;;4437085;32;20047;-74
2022/12/15 04:02:07;;;;;;;35.78;21.42;;;;;;;;;;4437292;32;20052;-73
2022/12/15 04:04:33;;;;;;;37.85;21.73;;;;;;;;;;4437378;32;20089;-73
2022/12/15 04:06:58;;;;;;;35.92;20.42;;;;;;;;;;4451308;32;20053;-74
2022/12/15 04:09:24;;;;;;;33.67;20.17;;;;;;;;;;4451003;32;20033;-74
2022/12/15 04:11:49;;;;;;;41.25;23.12;;;;;;;;;;4436841;32;20424;-74
2022/12/15 04:14:14;;;;;;;38.63;20.88;;;;;;;;;;4438801;32;20041;-73
2022/12/15 04:16:40;;;;;;;34.03;19.12;;;;;;;;;;4440056;32;20064;-73
2022/12/15 04:21:49;;;;;;;36.88;20.60;;;;;;;;;;4454711;32;20062;-72
2022/12/15 05:32:35;;;;;;;42.95;25.48;;;;;;;;;;4453928;32;20051;-72
2022/12/15 05:35:00;;;;;;;40.53;23.02;;;;;;;;;;4439217;32;20029;-72
2022/12/15 05:37:26;;;;;;;43.30;23.67;;;;;;;;;;4439173;32;20029;-72
2022/12/15 05:39:51;;;;;;;43.13;25.45;;;;;;;;;;4453148;32;20048;-73
2022/12/15 05:42:16;;;;;;;44.58;25.80;;;;;;;;;;4438498;32;20033;-72
2022/12/15 05:44:42;;;;;;;49.17;26.00;;;;;;;;;;4452756;32;20407;-73
2022/12/15 05:47:08;;;;;;;40.88;23.70;;;;;;;;;;4452588;32;20079;-73
2022/12/15 05:49:34;;;;;;;45.20;26.55;;;;;;;;;;4452723;32;20112;-73
2022/12/15 05:52:00;;;;;;;46.88;25.95;;;;;;;;;;4452843;32;20092;-73
2022/12/15 05:54:25;;;;;;;36.97;23.00;;;;;;;;;;4453106;32;20051;-71
2022/12/15 05:56:50;;;;;;;41.70;24.92;;;;;;;;;;4453175;32;20052;-73
2022/12/15 05:59:16;;;;;;;39.92;23.67;;;;;;;;;;4453338;32;20021;-73
2022/12/15 06:01:41;;;;;;;37.30;21.77;;;;;;;;;;4438814;32;20022;-73
2022/12/15 06:04:07;;;;;;;42.97;24.73;;;;;;;;;;4452986;32;20051;-73
2022/12/15 06:06:32;;;;;;;41.72;25.95;;;;;;;;;;4438639;32;20029;-73
2022/12/15 06:08:57;;;;;;;40.95;24.58;;;;;;;;;;4438712;32;20061;-73
2022/12/15 06:11:22;;;;;;;40.47;24.80;;;;;;;;;;4438605;32;20052;-73
2022/12/15 06:13:48;;;;;;;43.58;25.45;;;;;;;;;;4438819;32;20033;-73
2022/12/15 06:16:15;;;;;;;47.58;25.98;;;;;;;;;;4439512;32;20312;-74
2022/12/15 06:18:41;;;;;;;43.17;24.75;;;;;;;;;;4452684;32;20030;-73
2022/12/15 06:21:11;;;;;;;46.17;26.55;;;;;;;;;;4438722;32;20391;-72
2022/12/15 06:23:36;;;;;;;38.30;23.02;;;;;;;;;;4438502;32;20029;-73
2022/12/15 06:26:22;;;;;;;42.42;26.20;;;;;;;;;;4438388;32;20025;-73
2022/12/15 06:28:48;;;;;;;39.25;24.98;;;;;;;;;;4452367;32;20100;-73
2022/12/15 06:31:14;;;;;;;45.38;25.60;;;;;;;;;;4438871;32;20085;-73
2022/12/15 06:33:39;;;;;;;40.85;25.58;;;;;;;;;;4453380;32;20029;-72
2022/12/15 06:36:12;;;;;;;43.35;26.40;;;;;;;;;;4439982;32;20080;-73
2022/12/15 06:38:37;;;;;;;45.10;26.23;;;;;;;;;;4453352;32;20029;-72
2022/12/15 06:41:04;;;;;;;39.78;26.27;;;;;;;;;;4439560;32;20101;-72
2022/12/15 06:43:29;;;;;;;48.28;27.83;;;;;;;;;;4439456;32;20353;-74
2022/12/15 06:45:55;;;;;;;41.85;26.75;;;;;;;;;;4454547;32;20025;-73
2022/12/15 06:48:20;;;;;;;45.03;27.00;;;;;;;;;;4455667;32;20054;-73
2022/12/15 06:50:46;;;;;;;49.67;28.45;;;;;;;;;;4440627;32;20046;-72
2022/12/15 06:53:11;;;;;;;47.83;26.37;;;;;;;;;;4453335;32;20414;-72
2022/12/15 06:55:37;;;;;;;45.92;26.98;;;;;;;;;;4452476;32;20437;-72
2022/12/15 06:58:02;;;;;;;;;;;;;;;;;;4452703;32;20067;-72
2022/12/15 07:00:27;;;;;;;41.20;24.27;;;;;;;;;;4453352;32;19932;-73
2022/12/15 07:02:53;;;;;;;43.67;26.85;;;;;;;;;;4438458;32;20492;-73
2022/12/15 07:05:20;;;;;;;42.58;27.10;;;;;;;;;;4452849;32;20057;-73
2022/12/15 07:07:45;;;;;;;44.38;25.02;;;;;;;;;;4438245;32;20048;-73
2022/12/15 07:10:10;;;;;;;53.50;30.25;;;;;;;;;;4452741;32;20030;-73
2022/12/15 07:12:36;;;;;;;48.95;27.15;;;;;;;;;;4452497;32;20078;-73
2022/12/15 07:15:01;;;;;;;66.87;31.08;;;;;;;;;;4452126;32;20021;-73
2022/12/15 07:17:27;;;;;;;51.47;27.60;;;;;;;;;;4437668;32;20048;-73
2022/12/15 07:19:53;;;;;;;45.78;28.12;;;;;;;;;;4451993;32;20096;-74
2022/12/15 07:22:20;;;;;;;37.70;24.63;;;;;;;;;;4437261;32;20069;-73
2022/12/15 07:24:45;;;;;;;46.33;25.67;;;;;;;;;;4450427;32;20021;-73
2022/12/15 07:27:11;;;;;;;41.83;25.02;;;;;;;;;;4450043;32;20018;-72
2022/12/15 07:29:36;;;;;;;43.58;26.80;;;;;;;;;;4451331;32;20041;-72
2022/12/15 07:32:01;;;;;;;;;;;;;;;;;;4452178;32;20055;-73
2022/12/15 07:34:27;;;;;;;51.86;30.48;;;;;;;;;;4451275;32;19963;-73
2022/12/15 07:36:52;;;;;;;52.17;28.77;;;;;;;;;;4451400;32;20018;-74
2022/12/15 07:39:17;;;;;;;;;;;;;;;;;;4451667;32;20056;-72
2022/12/15 07:41:42;;;;;;;53.97;30.02;;;;;;;;;;4450887;32;20001;-73
2022/12/15 07:44:07;;;;;;;;;;;;;;;;;;4450792;32;20160;-73
2022/12/15 07:46:32;;;;;;;45.88;26.77;;;;;;;;;;4450486;32;19951;-73
2022/12/15 07:48:58;;;;;;;47.08;28.15;;;;;;;;;;4451015;32;20373;-74
2022/12/15 07:51:23;;;;;;;51.60;28.52;;;;;;;;;;4449934;32;20387;-72
2022/12/15 07:53:49;;;;;;;48.70;29.52;;;;;;;;;;4451562;32;20064;-72
2022/12/15 07:56:14;;;;;;;59.50;33.38;;;;;;;;;;4451158;32;20096;-73
2022/12/15 07:58:40;;;;;;;57.50;32.45;;;;;;;;;;4451366;32;20021;-73
2022/12/15 08:01:07;;;;;;;55.63;32.92;;;;;;;;;;4449693;32;20060;-72
2022/12/15 08:03:32;;;;;;;66.87;38.30;;;;;;;;;;4450687;32;20092;-72
2022/12/15 08:05:57;;;;;;;76.30;44.67;;;;;;;;;;4451641;32;20075;-72
2022/12/15 08:08:23;;;;;;;78.80;43.17;;;;;;;;;;4450687;32;20045;-72
2022/12/15 08:10:48;;;;;;;85.85;46.95;;;;;;;;;;4451105;32;20033;-73
2022/12/15 08:13:13;;;;;;;65.28;38.20;;;;;;;;;;4449820;32;20021;-73
2022/12/15 08:15:39;;;;;;;54.35;32.22;;;;;;;;;;4451419;32;20033;-74
2022/12/15 08:18:05;;;;;;;56.67;33.00;;;;;;;;;;4451952;32;20021;-75
2022/12/15 08:20:30;;;;;;;56.47;32.53;;;;;;;;;;4451552;32;20406;-74
2022/12/15 08:22:56;;;;;;;53.47;31.67;;;;;;;;;;4449690;32;20049;-74
2022/12/15 08:25:21;;;;;;;53.20;29.42;;;;;;;;;;4449597;32;20025;-73
2022/12/15 08:27:49;;;;;;;50.90;27.70;;;;;;;;;;4449694;32;20017;-73
2022/12/15 08:30:15;;;;;;;46.35;28.30;;;;;;;;;;4450902;32;20025;-74
2022/12/15 08:32:44;;;;;;;47.10;25.27;;;;;;;;;;4451476;32;20047;-73
2022/12/15 08:35:09;;;;;;;50.70;29.60;;;;;;;;;;4451407;32;20085;-74
2022/12/15 08:37:34;;;;;;;52.22;27.92;;;;;;;;;;4450955;32;20037;-74
2022/12/15 08:39:59;;;;;;;51.58;27.80;;;;;;;;;;4451050;32;20044;-73
2022/12/15 08:42:25;;;;;;;51.97;30.25;;;;;;;;;;4450637;32;20041;-73
2022/12/15 08:44:50;;;;;;;60.47;34.05;;;;;;;;;;4451629;32;20444;-73
2022/12/15 08:47:15;;;;;;;55.40;31.48;;;;;;;;;;4451412;32;20337;-72
2022/12/15 08:49:40;;;;;;;52.30;29.23;;;;;;;;;;4450845;32;20116;-73
2022/12/15 08:52:06;;;;;;;55.83;28.12;;;;;;;;;;4450765;32;20026;-73
2022/12/15 08:54:31;;;;;;;;;;;;;;;;;;4451018;32;20081;-73
2022/12/15 08:56:57;;;;;;;54.00;29.05;;;;;;;;;;4449533;32;19933;-73
2022/12/15 08:59:22;;;;;;;;;;;;;;;;;;4449629;32;20142;-73
2022/12/15 09:01:47;;;;;;;50.36;28.02;;;;;;;;;;4451556;32;20246;-74
2022/12/15 09:04:12;;;;;;;48.53;28.27;;;;;;;;;;4452364;32;20390;-74
2022/12/15 09:06:38;;;;;;;45.90;29.30;;;;;;;;;;4452155;32;20124;-74
2022/12/15 09:09:04;;;;;;;58.78;31.10;;;;;;;;;;4453891;32;20029;-75
2022/12/15 09:11:29;;;;;;;54.90;29.15;;;;;;;;;;4453894;32;20025;-73
2022/12/15 09:13:55;;;;;;;47.95;29.75;;;;;;;;;;4454586;32;20433;-75
2022/12/15 09:16:21;;;;;;;48.45;30.83;;;;;;;;;;4452681;32;20068;-74
2022/12/15 09:18:46;;;;;;;;;;;;;;;;;;4452789;32;20366;-73
2022/12/15 09:21:12;;;;;;;48.20;28.42;;;;;;;;;;4440802;32;20279;-74
2022/12/15 09:23:38;;;;;;;44.10;27.05;;;;;;;;;;4439650;32;20098;-73
2022/12/15 09:26:05;;;;;;;51.85;31.45;;;;;;;;;;4439400;32;20026;-73
2022/12/15 09:28:30;;;;;;;54.85;35.13;;;;;;;;;;4438985;32;20025;-74
2022/12/15 09:30:56;;;;;;;;;;;;;;;;;;4453820;32;20056;-74
2022/12/15 09:33:21;;;;;;;49.90;29.42;;;;;;;;;;4453460;32;20291;-74
2022/12/15 09:35:50;;;;;;;47.75;26.35;;;;;;;;;;4453789;32;20411;-74
2022/12/15 09:38:15;;;;;;;43.83;26.33;;;;;;;;;;4439642;32;20422;-75
2022/12/15 09:40:40;;;;;;;;;;;;;;;;;;4453753;32;20067;-75
2022/12/15 09:43:05;;;;;;;42.86;27.62;;;;;;;;;;4440458;32;19937;-75
2022/12/15 09:45:30;;;;;;;;;;;;;;;;;;4455166;32;20022;-75
2022/12/15 09:47:59;;;;;;;47.83;25.65;;;;;;;;;;4454507;32;20306;-75
2022/12/15 09:50:28;;;;;;;53.45;30.92;;;;;;;;;;4443342;32;20143;-74
2022/12/15 09:52:57;;;;;;;50.72;30.17;;;;;;;;;;4442086;32;20350;-75
2022/12/15 09:55:26;;;;;;;45.95;30.20;;;;;;;;;;4440120;32;20033;-76
2022/12/15 09:57:53;;;;;;;51.70;34.03;;;;;;;;;;4453520;32;20025;-75
2022/12/15 10:00:23;;;;;;;49.83;31.70;;;;;;;;;;4453751;32;20461;-75
2022/12/15 10:02:58;;;;;;;48.72;28.87;;;;;;;;;;4439324;32;20049;-74
2022/12/15 10:05:49;;;;;;;45.80;27.17;;;;;;;;;;4439345;32;20073;-74
2022/12/15 10:08:14;;;;;;;44.20;29.55;;;;;;;;;;4439403;32;20037;-73
2022/12/15 10:10:40;;;;;;;;;;;;;;;;;;4441843;32;20018;-75
2022/12/15 10:13:18;;;;;;;43.87;28.23;;;;;;;;;;4441441;32;19964;-73
2022/12/15 10:15:45;;;;;;;49.35;28.52;;;;;;;;;;4441906;32;20151;-73
2022/12/15 10:18:17;;;;;;;43.25;28.87;;;;;;;;;;4441609;32;20029;-74
2022/12/15 10:20:42;;;;;;;44.65;27.58;;;;;;;;;;4454851;32;20082;-74
2022/12/15 10:23:08;;;;;;;;;;;;;;;;;;4453640;32;20426;-75
2022/12/15 10:25:33;;;;;;;42.50;25.72;;;;;;;;;;4438585;32;19959;-75
2022/12/15 10:27:58;;;;;;;;;;;;;;;;;;4438539;32;20051;-75
2022/12/15 10:30:23;;;;;;;41.78;26.37;;;;;;;;;;4438088;32;19937;-75
2022/12/15 10:32:49;;;;;;;42.10;25.42;;;;;;;;;;4452120;32;20077;-75
2022/12/15 10:35:14;;;;;;;;;;;;;;;;;;4452721;32;20116;-75
2022/12/15 10:37:40;;;;;;;44.55;28.00;;;;;;;;;;4437648;32;20012;-75
2022/12/15 10:40:05;;;;;;;;;;;;;;;;;;4438160;32;20506;-75
2022/12/15 10:42:31;;;;;;;43.30;27.46;;;;;;;;;;4437557;32;19944;-76
2022/12/15 10:44:56;;;;;;;;;;;;;;;;;;4438253;32;20040;-75
2022/12/15 10:47:25;;;;;;;45.00;27.45;;;;;;;;;;4451576;32;19969;-74
2022/12/15 10:49:51;;;;;;;49.15;28.60;;;;;;;;;;4451853;32;20162;-75
2022/12/15 10:52:16;;;;;;;;;;;;;;;;;;4451755;32;20433;-76
2022/12/15 10:54:46;;;;;;;45.12;27.05;;;;;;;;;;4438284;32;19933;-74
2022/12/15 10:57:23;;;;;;;46.45;27.00;;;;;;;;;;4451631;32;20150;-74
2022/12/15 10:59:48;;;;;;;44.08;25.95;;;;;;;;;;4437398;32;20048;-74
2022/12/15 11:02:14;;;;;;;;;;;;;;;;;;4452327;32;20083;-75
2022/12/15 11:04:39;;;;;;;42.17;26.58;;;;;;;;;;4437456;32;20318;-73
2022/12/15 11:07:04;;;;;;;;;;;;;;;;;;4452292;32;20064;-75
2022/12/15 11:09:34;;;;;;;31.45;21.58;;;;;;;;;;4437678;32;20342;-76
2022/12/15 11:14:47;;;;;;;27.20;17.10;;;;;;;;;;4452262;32;20100;-75
2022/12/15 11:17:16;;;;;;;26.52;15.20;;;;;;;;;;4437503;32;20410;-76
2022/12/15 11:19:51;;;;;;;26.80;14.70;;;;;;;;;;4452410;32;20065;-76
2022/12/15 11:22:22;;;;;;;22.42;13.98;;;;;;;;;;4437256;32;20025;-76
2022/12/15 11:24:58;;;;;;;22.20;13.60;;;;;;;;;;4450678;32;20017;-76
2022/12/15 11:27:26;;;;;;;27.10;14.25;;;;;;;;;;4437166;32;20030;-75
2022/12/15 11:30:10;;;;;;;26.73;14.45;;;;;;;;;;4437415;32;20044;-75
2022/12/15 11:32:37;;;;;;;20.67;12.15;;;;;;;;;;4451230;32;20021;-77
2022/12/15 11:35:03;;;;;;;20.42;14.63;;;;;;;;;;4451861;32;20025;-76
2022/12/15 11:37:28;;;;;;;;;;;;;;;;;;4437161;32;20071;-77
2022/12/15 11:40:05;;;;;;;28.90;15.57;;;;;;;;;;4437084;32;19957;-76
2022/12/15 11:42:49;;;;;;;21.87;14.63;;;;;;;;;;4436819;32;20138;-76
2022/12/15 11:45:17;;;;;;;18.77;13.02;;;;;;;;;;4437278;32;20029;-76
2022/12/15 11:47:51;;;;;;;20.42;12.68;;;;;;;;;;4437672;32;20022;-76
2022/12/15 11:50:22;;;;;;;21.27;12.40;;;;;;;;;;4437241;32;20025;-75
2022/12/15 11:53:03;;;;;;;20.60;13.38;;;;;;;;;;4451316;32;20026;-76
2022/12/15 11:55:51;;;;;;;25.88;14.32;;;;;;;;;;4451732;32;20147;-77
2022/12/15 11:58:16;;;;;;;22.48;14.87;;;;;;;;;;4451630;32;20034;-75
2022/12/15 12:00:42;;;;;;;;;;;;;;;;;;4437054;32;20385;-76
2022/12/15 12:03:07;;;;;;;29.00;18.05;;;;;;;;;;4451104;32;20323;-76
2022/12/15 12:05:32;;;;;;;;;;;;;;;;;;4436992;32;20120;-76
2022/12/15 12:08:09;;;;;;;29.23;17.83;;;;;;;;;;4450896;32;20000;-77
2022/12/15 12:10:34;;;;;;;;;;;;;;;;;;4437099;32;20157;-75
2022/12/15 12:13:04;;;;;;;29.18;20.30;;;;;;;;;;4436831;32;19941;-76
2022/12/15 12:15:34;;;;;;;31.62;20.15;;;;;;;;;;4451035;32;20410;-76
2022/12/15 12:18:20;;;;;;;36.00;19.15;;;;;;;;;;4451438;32;20045;-75
2022/12/15 12:20:48;;;;;;;27.33;18.10;;;;;;;;;;4451911;32;20033;-76
2022/12/15 12:23:46;;;;;;;30.67;18.45;;;;;;;;;;4437489;32;20025;-76
2022/12/15 12:26:15;;;;;;;27.42;16.27;;;;;;;;;;4395007;32;20025;-74
2022/12/15 12:28:45;;;;;;;17.85;13.10;;;;;;;;;;4437353;32;20030;-76
2022/12/15 12:31:19;;;;;;;26.15;12.60;;;;;;;;;;4437394;32;20013;-75
2022/12/15 12:33:48;;;;;;;20.83;11.43;;;;;;;;;;4438071;32;20414;-74
2022/12/15 12:36:14;;;;;;;24.45;13.68;;;;;;;;;;4442549;32;20074;-76
2022/12/15 12:38:48;;;;;;;21.00;11.50;;;;;;;;;;4457544;32;20029;-76
2022/12/15 12:41:32;;;;;;;20.10;10.38;;;;;;;;;;4455054;32;20056;-76
2022/12/15 12:44:05;;;;;;;16.33;10.18;;;;;;;;;;4440511;32;20029;-76
2022/12/15 12:46:33;;;;;;;17.75;11.10;;;;;;;;;;4455025;32;20421;-75
2022/12/15 12:49:08;;;;;;;17.00;11.18;;;;;;;;;;4454674;32;20087;-76
2022/12/15 12:51:35;;;;;;;18.83;12.90;;;;;;;;;;4454153;32;20048;-75
2022/12/15 12:54:00;;;;;;;21.52;11.48;;;;;;;;;;4453820;32;20026;-75
2022/12/15 12:56:26;;;;;;;;;;;;;;;;;;4454366;32;20033;-76
2022/12/15 12:58:51;;;;;;;16.17;11.38;;;;;;;;;;4454122;32;19975;-75
2022/12/15 13:01:18;;;;;;;18.15;10.68;;;;;;;;;;4439154;32;20048;-75
2022/12/15 13:03:44;;;;;;;19.75;12.20;;;;;;;;;;4453089;32;20112;-77
2022/12/15 13:06:09;;;;;;;;;;;;;;;;;;4453815;32;20029;-76
2022/12/15 13:08:45;;;;;;;16.75;10.52;;;;;;;;;;4439084;32;19992;-76
2022/12/15 13:11:10;;;;;;;;;;;;;;;;;;4440378;32;20025;-76
2022/12/15 13:13:43;;;;;;;18.52;11.98;;;;;;;;;;4439408;32;19973;-76
2022/12/15 13:16:25;;;;;;;18.87;11.25;;;;;;;;;;4453707;32;20079;-77
2022/12/15 13:18:53;;;;;;;19.35;11.40;;;;;;;;;;4454124;32;20021;-76
2022/12/15 13:21:37;;;;;;;18.87;12.35;;;;;;;;;;4439047;32;20097;-76
2022/12/15 13:24:02;;;;;;;17.98;11.63;;;;;;;;;;4439441;32;20030;-77
2022/12/15 13:26:27;;;;;;;;;;;;;;;;;;4440327;32;20409;-76
2022/12/15 13:28:55;;;;;;;21.42;12.90;;;;;;;;;;4454083;32;19937;-75
2022/12/15 13:31:20;;;;;;;17.58;12.40;;;;;;;;;;4453560;32;20033;-76
2022/12/15 13:33:45;;;;;;;;;;;;;;;;;;4454753;32;20086;-76
2022/12/15 13:36:10;;;;;;;19.17;12.30;;;;;;;;;;4454945;32;19936;-75
2022/12/15 13:38:36;;;;;;;;;;;;;;;;;;4457822;32;20096;-76
2022/12/15 13:41:20;;;;;;;23.27;16.00;;;;;;;;;;4444288;32;19944;-76
2022/12/15 13:43:46;;;;;;;19.15;11.90;;;;;;;;;;4459056;32;20022;-75
2022/12/15 13:46:19;;;;;;;20.58;13.30;;;;;;;;;;4458750;32;20055;-75
2022/12/15 13:48:46;;;;;;;22.48;13.52;;;;;;;;;;4445848;32;20021;-75
2022/12/15 13:51:20;;;;;;;22.27;14.32;;;;;;;;;;4459769;32;20071;-76
2022/12/15 13:53:47;;;;;;;18.17;12.90;;;;;;;;;;4459590;32;20044;-74
2022/12/15 13:56:25;;;;;;;24.55;14.52;;;;;;;;;;4461799;32;20033;-75
2022/12/15 13:59:14;;;;;;;22.02;14.27;;;;;;;;;;4441651;32;20118;-76
2022/12/15 14:01:47;;;;;;;25.40;15.23;;;;;;;;;;4419341;32;20069;-77
2022/12/15 14:04:15;;;;;;;21.02;14.15;;;;;;;;;;4458474;32;20039;-77
2022/12/15 14:06:52;;;;;;;21.00;14.48;;;;;;;;;;4458898;32;20088;-77
2022/12/15 14:09:24;;;;;;;22.80;14.07;;;;;;;;;;4446231;32;20025;-76
2022/12/15 14:11:50;;;;;;;17.80;12.50;;;;;;;;;;4458516;32;20033;-75
2022/12/15 14:14:15;;;;;;;;;;;;;;;;;;4456419;32;20387;-76
2022/12/15 14:16:42;;;;;;;25.92;14.60;;;;;;;;;;4456601;32;19933;-76
2022/12/15 14:19:07;;;;;;;20.50;14.40;;;;;;;;;;4455723;32;20034;-76
2022/12/15 14:21:32;;;;;;;;;;;;;;;;;;4455590;32;20041;-75
2022/12/15 14:23:57;;;;;;;17.60;12.68;;;;;;;;;;4455485;32;20310;-75
2022/12/15 14:26:22;;;;;;;;;;;;;;;;;;4456148;32;20117;-76
2022/12/15 14:28:57;;;;;;;19.85;12.00;;;;;;;;;;4440760;32;20007;-76
2022/12/15 14:31:26;;;;;;;18.23;11.95;;;;;;;;;;4456904;32;20088;-77
2022/12/15 14:34:10;;;;;;;19.83;12.52;;;;;;;;;;4457067;32;20420;-76
2022/12/15 14:36:35;;;;;;;19.73;10.77;;;;;;;;;;4439887;32;20052;-76
2022/12/15 14:39:00;;;;;;;;;;;;;;;;;;4454510;32;20017;-76
2022/12/15 14:41:34;;;;;;;17.77;11.50;;;;;;;;;;4439395;32;20354;-75
2022/12/15 14:44:03;;;;;;;25.02;12.07;;;;;;;;;;4454985;32;20096;-76
2022/12/15 14:46:28;;;;;;;17.55;12.82;;;;;;;;;;4453123;32;20051;-76
2022/12/15 14:48:53;;;;;;;;;;;;;;;;;;4441162;32;20092;-76
2022/12/15 14:51:19;;;;;;;22.45;13.02;;;;;;;;;;4452416;32;19945;-77
2022/12/15 14:53:45;;;;;;;;;;;;;;;;;;4453010;32;20100;-76
2022/12/15 14:56:19;;;;;;;22.70;14.35;;;;;;;;;;4453319;32;19945;-75
2022/12/15 14:58:45;;;;;;;16.92;12.85;;;;;;;;;;4451966;32;20108;-75
2022/12/15 15:01:10;;;;;;;;;;;;;;;;;;4453820;32;20363;-75
2022/12/15 15:03:37;;;;;;;22.80;14.63;;;;;;;;;;4452680;32;19958;-75
2022/12/15 15:06:06;;;;;;;23.12;13.57;;;;;;;;;;4451778;32;20112;-76
2022/12/15 15:08:32;;;;;;;21.58;14.02;;;;;;;;;;4453120;32;20071;-76
2022/12/15 15:11:00;;;;;;;23.85;15.07;;;;;;;;;;4454134;32;20045;-75
2022/12/15 15:13:27;;;;;;;22.87;15.77;;;;;;;;;;4453984;32;20045;-75
2022/12/15 15:16:02;;;;;;;24.40;16.48;;;;;;;;;;4454434;32;20120;-75
2022/12/15 15:18:28;;;;;;;30.23;16.80;;;;;;;;;;4452772;32;20025;-75
2022/12/15 15:20:53;;;;;;;;;;;;;;;;;;4452375;32;20041;-75
2022/12/15 15:23:18;;;;;;;32.10;20.05;;;;;;;;;;4452954;32;20392;-75
2022/12/15 15:25:43;;;;;;;;;;;;;;;;;;4453140;32;20183;-74
2022/12/15 15:28:08;;;;;;;33.42;21.27;;;;;;;;;;4452596;32;19963;-75
2022/12/15 15:30:34;;;;;;;;;;;;;;;;;;4438564;32;20142;-75
2022/12/15 15:33:01;;;;;;;38.28;21.58;;;;;;;;;;4452142;32;20025;-75
2022/12/15 15:35:30;;;;;;;30.00;20.67;;;;;;;;;;4452771;32;20187;-75
2022/12/15 15:38:01;;;;;;;33.38;20.55;;;;;;;;;;4438515;32;20021;-75
2022/12/15 15:40:26;;;;;;;42.53;22.95;;;;;;;;;;4437573;32;20347;-75
2022/12/15 15:42:51;;;;;;;;;;;;;;;;;;4452094;32;20104;-75
2022/12/15 15:45:16;;;;;;;53.35;30.15;;;;;;;;;;4451395;32;20310;-74
2022/12/15 15:47:41;;;;;;;;;;;;;;;;;;4453441;32;20138;-75
2022/12/15 15:50:14;;;;;;;54.80;30.85;;;;;;;;;;4437828;32;20246;-76
2022/12/15 15:52:39;;;;;;;57.30;30.73;;;;;;;;;;4452139;32;20021;-75
2022/12/15 15:55:04;;;;;;;;;;;;;;;;;;4452333;32;20052;-74
2022/12/15 15:57:30;;;;;;;49.35;31.02;;;;;;;;;;4451819;32;19936;-76
2022/12/15 15:59:55;;;;;;;;;;;;;;;;;;4452076;32;20112;-75
2022/12/15 16:02:21;;;;;;;47.95;32.25;;;;;;;;;;4452671;32;19972;-76
2022/12/15 16:04:46;;;;;;;46.37;32.97;;;;;;;;;;4452070;32;20120;-75
2022/12/15 16:07:11;;;;;;;;;;;;;;;;;;4437425;32;20042;-74
2022/12/15 16:09:37;;;;;;;47.55;31.10;;;;;;;;;;4452515;32;19932;-75
2022/12/15 16:12:02;;;;;;;;;;;;;;;;;;4455450;32;20217;-74
2022/12/15 16:14:27;;;;;;;48.90;31.70;;;;;;;;;;4440898;32;19937;-76
2022/12/15 16:16:53;;;;;;;;;;;;;;;;;;4455263;32;20176;-76
2022/12/15 16:19:18;;;;;;;51.65;31.40;;;;;;;;;;4454865;32;19983;-76
2022/12/15 16:21:43;;;;;;;;;;;;;;;;;;4454744;32;20026;-75
2022/12/15 16:24:12;;;;;;;51.24;33.38;;;;;;;;;;4455657;32;20359;-75
2022/12/15 16:26:38;;;;;;;63.78;38.72;;;;;;;;;;4454948;32;20022;-75
2022/12/15 16:29:04;;;;;;;;;;;;;;;;;;4455066;32;20056;-75
2022/12/15 16:31:36;;;;;;;78.33;47.97;;;;;;;;;;4441372;32;20023;-76
2022/12/15 16:34:02;;;;;;;74.85;48.28;;;;;;;;;;4454403;32;20390;-76
2022/12/15 16:36:27;;;;;;;;;;;;;;;;;;4455051;32;20036;-75
2022/12/15 16:38:52;;;;;;;74.65;44.95;;;;;;;;;;4441210;32;19936;-75
2022/12/15 16:41:18;;;;;;;;;;;;;;;;;;4455989;32;20160;-74
2022/12/15 16:43:45;;;;;;;66.82;38.46;;;;;;;;;;4454769;32;20351;-74
2022/12/15 16:46:11;;;;;;;64.65;37.90;;;;;;;;;;4456171;32;20021;-75
2022/12/15 16:48:36;;;;;;;;;;;;;;;;;;4442255;32;20051;-76
2022/12/15 16:51:04;;;;;;;65.22;39.15;;;;;;;;;;4455272;32;19963;-75
2022/12/15 16:53:34;;;;;;;67.40;38.97;;;;;;;;;;4454620;32;20117;-75
2022/12/15 16:56:01;;;;;;;71.75;44.42;;;;;;;;;;4440489;32;20485;-74
2022/12/15 16:58:27;;;;;;;69.82;43.22;;;;;;;;;;4454318;32;20092;-75
2022/12/15 17:00:55;;;;;;;;;;;;;;;;;;4454600;32;20021;-75
2022/12/15 17:03:27;;;;;;;83.28;48.35;;;;;;;;;;4453793;32;19936;-74
2022/12/15 17:05:56;;;;;;;84.97;50.47;;;;;;;;;;4454895;32;20426;-74
2022/12/15 17:08:23;;;;;;;71.68;47.90;;;;;;;;;;4440516;32;20411;-74